Terminal Aerodrome Forecast
Issued by NWS

Home | Current Version | Previous Version | Text Only | Print | Product List | Glossary On
Versions: 1 2 3 4 5 6 7 8 9 10 11 12
000
FTUS44 KLIX 231100
TAFGPT
TAF
KGPT 231131Z 2312/2412 VRB03KT P6SM FEW050
     FM231500 34005KT P6SM SCT035
     FM232000 24007KT P6SM SCT050
     FM241000 30005KT P6SM FEW050=

USA.gov is the U.S. government's official web portal to all federal, state and local government web resources and services.